sim
Sign-in with your pilot id or email,
or register
Callsign
Passwort

Schedule Details

Flight Number: OEO8701
Departure: Genoa Cristoforo Colombo Airport (LIMJ) at 11:05
Arrival: Munich Airport (EDDM) at 12:25

Weather Information
Getting current METAR information for LIMJ 190550Z 03010KT CAVOK 23/15 Q1018
Getting current METAR information for EDDM 190550Z VRB01KT CAVOK 05/04 Q1020 NOSIG

Schedule Frequency

Route Map